This is the latest recevied weather packets stored in our database for station/object HARMALA. If no packets are shown the sender has not sent any weather packets the latest 10 day(s).
| Time | Temp. | Humidity | Pressure | Rain* | Wind** | Luminosity | Snow |
|---|---|---|---|---|---|---|---|
| 1777769227 | 10.56° C | 57% | 1005.2 hPa | 0 mm | - | - | - |
| 1777768027 | 9.44° C | 63% | 1005.4 hPa | 0 mm | - | - | - |
| 1777766827 | 9.44° C | 62% | 1005.1 hPa | 0 mm | - | - | - |
| 1777765627 | 10° C | 62% | 1005.1 hPa | 0 mm | - | - | - |
| 1777764427 | 10° C | 62% | 1005.1 hPa | 0 mm | - | - | - |
| 1777763227 | 10° C | 60% | 1005.3 hPa | 0 mm | - | - | - |
| 1777762027 | 10.56° C | 58% | 1005.5 hPa | 0 mm | - | - | - |
| 1777760828 | 11.11° C | 55% | 1005.6 hPa | 0 mm | - | - | - |
| 1777759628 | 10.56° C | 59% | 1005.6 hPa | 0 mm | - | - | - |
| 1777758427 | 10.56° C | 56% | 1005.8 hPa | 0 mm | - | - | - |
| 1777757226 | 10.56° C | 59% | 1005.9 hPa | 0 mm | - | - | - |
| 1777756026 | 10.56° C | 58% | 1006 hPa | 0 mm | - | - | - |
| 1777754828 | 11.11° C | 54% | 1006 hPa | 0 mm | - | - | - |
| 1777753626 | 11.11° C | 52% | 1006.2 hPa | 0 mm | - | - | - |
| 1777752427 | 11.67° C | 50% | 1006.6 hPa | 0 mm | - | - | - |
| 1777751226 | 11.67° C | 48% | 1006.8 hPa | 0 mm | - | - | - |
| 1777750026 | 11.67° C | 46% | 1006.7 hPa | 0 mm | - | - | - |
| 1777748826 | 13.33° C | 40% | 1006.7 hPa | 0 mm | - | - | - |
| 1777747626 | 13.89° C | 38% | 1006.6 hPa | 0 mm | - | - | - |
| 1777746426 | 14.44° C | 37% | 1006.5 hPa | 0 mm | - | - | - |
| 1777745225 | 15° C | 36% | 1006.4 hPa | 0 mm | - | - | - |
| 1777744026 | 15.56° C | 34% | 1006.4 hPa | 0 mm | - | - | - |
| 1777742826 | 16.11° C | 33% | 1006.5 hPa | 0 mm | - | - | - |
| 1777741625 | 16.11° C | 32% | 1006.5 hPa | 0 mm | - | - | - |
| 1777740425 | 16.67° C | 31% | 1006.5 hPa | 0 mm | - | - | - |
* Rain latest hour (hover to see other rain measurements)
** Current wind speed in m/s (hover to see current wind gust speed)